Time;durP1;ratioP1;P1;durP2;ratioP2;P2;SDS_P1;SDS_P2;PMS_P1;PMS_P2;Temp;Humidity;BMP_temperature;BMP_pressure;BME280_temperature;BME280_humidity;BME280_pressure;Samples;Min_cycle;Max_cycle;Signal;HPM_P1;HPM_P2
2022/05/05 00:00:34;;;;;;;14.63;7.47;;;;;;;18.84;53.55;98884.81;4486409;32;20476;-84
2022/05/05 00:03:01;;;;;;;13.27;7.30;;;;;;;18.88;53.31;98895.22;4472090;32;20108;-84
2022/05/05 00:05:26;;;;;;;13.75;7.30;;;;;;;18.89;52.68;98895.09;4486432;32;20092;-84
2022/05/05 00:07:52;;;;;;;12.20;6.57;;;;;;;18.90;52.75;98898.63;4486295;32;20379;-84
2022/05/05 00:15:46;;;;;;;12.95;6.12;;;;;;;18.78;52.88;98888.00;4486337;32;20489;-84
2022/05/05 00:18:11;;;;;;;12.90;6.60;;;;;;;18.83;52.79;98896.47;4486098;32;20061;-84
2022/05/05 00:20:37;;;;;;;12.82;6.57;;;;;;;18.76;52.63;98892.62;4486158;32;20076;-84
2022/05/05 00:23:02;;;;;;;11.68;6.12;;;;;;;18.77;52.56;98888.13;4486123;32;20122;-84
2022/05/05 00:25:28;;;;;;;14.40;6.35;;;;;;;18.79;52.39;98888.81;4486045;32;20193;-84
2022/05/05 00:27:53;;;;;;;10.55;5.80;;;;;;;18.82;52.19;98884.09;4485970;32;20077;-84
2022/05/05 00:30:18;;;;;;;11.90;5.90;;;;;;;18.82;51.48;98888.59;4486013;32;20112;-84
2022/05/05 00:32:44;;;;;;;12.37;5.95;;;;;;;18.88;51.43;98893.41;4485850;32;20136;-84
2022/05/05 00:35:09;;;;;;;12.93;6.15;;;;;;;18.83;51.65;98884.94;4486013;32;20126;-85
2022/05/05 00:37:35;;;;;;;13.13;6.00;;;;;;;18.81;51.93;98890.44;4485597;32;20103;-83
2022/05/05 00:40:00;;;;;;;10.88;5.57;;;;;;;18.79;51.78;98888.81;4485754;32;20098;-84
2022/05/05 00:42:25;;;;;;;12.13;5.30;;;;;;;18.80;51.69;98893.22;4485802;32;20162;-84
2022/05/05 00:44:51;;;;;;;11.43;5.72;;;;;;;18.79;51.55;98887.00;4485802;32;20472;-84
2022/05/05 00:47:19;;;;;;;10.70;5.50;;;;;;;18.80;51.35;98882.56;4471512;32;20107;-83
2022/05/05 00:49:49;;;;;;;10.70;5.45;;;;;;;18.82;51.51;98883.25;4485794;32;20088;-84
2022/05/05 00:52:14;;;;;;;10.40;4.93;;;;;;;18.78;51.68;98877.31;4486339;32;20092;-83
2022/05/05 00:54:40;;;;;;;12.02;5.00;;;;;;;18.78;51.41;98876.47;4473632;32;20383;-84
2022/05/05 00:57:06;;;;;;;10.48;5.25;;;;;;;18.79;51.20;98873.66;4487799;32;20337;-84
2022/05/05 00:59:31;;;;;;;9.90;5.05;;;;;;;18.78;51.25;98871.13;4473583;32;20081;-85
2022/05/05 01:01:56;;;;;;;9.50;4.95;;;;;;;18.79;51.39;98873.66;4460489;32;20096;-85
2022/05/05 01:04:22;;;;;;;10.80;4.97;;;;;;;18.80;51.24;98874.56;4473680;32;20126;-85
2022/05/05 01:06:47;;;;;;;10.07;4.57;;;;;;;18.79;51.28;98873.66;4487981;32;20129;-85
2022/05/05 01:09:13;;;;;;;12.18;5.68;;;;;;;18.79;51.23;98875.47;4487846;32;20432;-84
2022/05/05 01:11:38;;;;;;;9.95;4.70;;;;;;;18.79;50.97;98875.47;4487839;32;20121;-83
2022/05/05 01:14:04;;;;;;;10.77;5.03;;;;;;;18.82;50.88;98883.25;4487860;32;20085;-84
2022/05/05 01:16:31;;;;;;;12.32;6.30;;;;;;;18.73;51.54;98878.69;4473580;32;20114;-84
2022/05/05 01:18:56;;;;;;;14.73;7.17;;;;;;;18.74;51.60;98886.56;4487728;32;20106;-84
2022/05/05 01:21:22;;;;;;;14.10;7.32;;;;;;;18.70;51.93;98877.16;4487761;32;20195;-84
2022/05/05 01:23:48;;;;;;;15.02;8.40;;;;;;;18.68;52.37;98887.09;4473665;32;20104;-83
2022/05/05 01:28:57;;;;;;;14.52;8.10;;;;;;;18.62;52.83;98896.47;4487801;32;20481;-83
2022/05/05 01:31:22;;;;;;;14.40;8.60;;;;;;;18.62;52.95;98896.47;4473605;32;20096;-83
2022/05/05 01:33:48;;;;;;;15.18;8.52;;;;;;;18.63;52.99;98900.81;4487660;32;20111;-82
2022/05/05 01:36:13;;;;;;;15.80;7.93;;;;;;;18.62;53.13;98899.16;4487634;32;20111;-83
2022/05/05 01:38:43;;;;;;;14.27;8.07;;;;;;;18.67;53.28;98912.91;4487363;32;20132;-82
2022/05/05 01:41:13;;;;;;;14.00;7.25;;;;;;;18.63;53.56;98908.84;4473182;32;20154;-83
2022/05/05 01:43:40;;;;;;;14.55;8.85;;;;;;;18.66;53.85;98918.41;4487756;32;20119;-83
2022/05/05 01:46:06;;;;;;;16.50;8.50;;;;;;;18.48;53.91;98923.47;4473395;32;20103;-83
2022/05/05 01:48:32;;;;;;;15.10;8.63;;;;;;;18.53;53.78;98925.78;4473482;32;20137;-83
2022/05/05 01:50:58;;;;;;;15.52;8.18;;;;;;;18.58;53.85;98932.41;4473443;32;20100;-86
2022/05/05 01:53:24;;;;;;;15.65;8.50;;;;;;;18.62;53.91;98931.16;4487756;32;20372;-85
2022/05/05 01:55:49;;;;;;;17.92;9.25;;;;;;;18.62;54.04;98935.63;4487816;32;20096;-85
2022/05/05 01:58:15;;;;;;;18.58;8.90;;;;;;;18.23;54.58;98930.06;4487531;32;20080;-84
2022/05/05 02:00:40;;;;;;;16.52;8.60;;;;;;;18.18;54.51;98934.94;4473378;32;20100;-85
2022/05/05 02:03:12;;;;;;;14.02;8.23;;;;;;;18.21;54.34;98942.66;4487740;32;20131;-85
2022/05/05 02:05:42;;;;;;;14.85;8.88;;;;;;;18.20;54.13;98939.16;4487312;32;20080;-84
2022/05/05 02:08:08;;;;;;;16.12;8.27;;;;;;;17.96;54.67;98951.84;4460001;32;20570;-86
2022/05/05 02:10:34;;;;;;;15.50;8.90;;;;;;;17.93;54.78;98955.63;4487493;32;20387;-84
2022/05/05 02:13:00;;;;;;;17.52;9.82;;;;;;;17.71;55.10;98967.16;4487577;32;20116;-85
2022/05/05 02:15:27;;;;;;;18.00;8.85;;;;;;;17.92;54.48;98967.25;4473350;32;20080;-84
2022/05/05 02:17:53;;;;;;;16.62;8.93;;;;;;;17.95;54.35;98964.34;4487561;32;20471;-85
2022/05/05 02:20:19;;;;;;;16.42;8.80;;;;;;;17.95;54.55;98963.50;4473435;32;20132;-85
2022/05/05 02:22:44;;;;;;;18.10;9.05;;;;;;;17.96;54.61;98965.19;4487662;32;20124;-85
2022/05/05 02:25:10;;;;;;;15.10;8.77;;;;;;;18.06;54.62;98969.66;4487584;32;20088;-84
2022/05/05 02:27:52;;;;;;;16.17;8.98;;;;;;;18.07;54.36;98965.16;4487553;32;20128;-82
2022/05/05 02:30:19;;;;;;;15.70;8.73;;;;;;;18.15;54.30;98964.50;4487456;32;20084;-82
2022/05/05 02:32:44;;;;;;;16.15;9.00;;;;;;;18.19;54.03;98961.44;4487586;32;20100;-83
2022/05/05 02:35:10;;;;;;;16.83;9.25;;;;;;;18.19;54.19;98961.44;4487581;32;20114;-82
2022/05/05 02:40:20;;;;;;;15.68;8.25;;;;;;;18.20;54.42;98957.81;4475002;32;20157;-84
2022/05/05 02:42:45;;;;;;;15.60;9.18;;;;;;;18.24;54.52;98953.94;4487254;32;20089;-84
2022/05/05 02:45:10;;;;;;;15.13;8.60;;;;;;;18.23;54.56;98951.38;4487083;32;20470;-82
2022/05/05 02:47:36;;;;;;;15.85;8.98;;;;;;;18.27;54.56;98952.81;4472911;32;20092;-82
2022/05/05 02:50:01;;;;;;;15.57;8.73;;;;;;;18.27;54.49;98955.47;4487027;32;20100;-82
2022/05/05 02:52:27;;;;;;;16.08;8.65;;;;;;;18.25;54.43;98950.31;4472981;32;20092;-83
2022/05/05 02:54:53;;;;;;;16.35;8.80;;;;;;;18.24;54.31;98953.94;4487217;32;20080;-83
2022/05/05 02:57:20;;;;;;;18.30;10.05;;;;;;;18.23;54.05;98952.25;4487049;32;20140;-84
2022/05/05 02:59:47;;;;;;;16.05;9.45;;;;;;;18.18;53.50;98953.59;4472989;32;20096;-84
2022/05/05 03:02:12;;;;;;;15.70;9.13;;;;;;;18.20;53.43;98957.81;4487160;32;20506;-85
2022/05/05 03:04:38;;;;;;;15.30;8.55;;;;;;;18.22;53.07;98950.53;4486993;32;20152;-85
2022/05/05 03:07:04;;;;;;;18.83;8.80;;;;;;;18.31;53.00;98953.41;4487120;32;20111;-85
2022/05/05 03:09:29;;;;;;;15.15;8.43;;;;;;;18.34;52.90;98950.50;4487160;32;20105;-85
2022/05/05 03:11:54;;;;;;;15.25;8.20;;;;;;;18.33;52.91;98951.44;4487105;32;20100;-85
2022/05/05 03:14:20;;;;;;;15.85;8.90;;;;;;;18.38;52.70;98959.94;4487019;32;20096;-85
2022/05/05 03:16:45;;;;;;;14.87;8.20;;;;;;;18.42;52.49;98948.84;4485764;32;20096;-84
2022/05/05 03:19:11;;;;;;;15.80;8.10;;;;;;;18.20;52.02;98951.66;4486789;32;20156;-84
2022/05/05 03:21:37;;;;;;;16.52;8.13;;;;;;;18.37;51.83;98967.09;4486984;32;20084;-85
2022/05/05 03:24:03;;;;;;;14.93;8.18;;;;;;;18.43;51.98;98957.72;4472700;32;20135;-86
2022/05/05 03:26:29;;;;;;;14.60;7.45;;;;;;;18.49;52.51;98951.03;4487003;32;20103;-84
2022/05/05 03:28:54;;;;;;;15.43;7.55;;;;;;;18.32;53.06;98944.44;4486808;32;20491;-84
2022/05/05 03:31:20;;;;;;;13.93;7.70;;;;;;;18.33;53.40;98947.00;4472463;32;20194;-84
2022/05/05 03:33:45;;;;;;;13.70;7.43;;;;;;;18.32;53.79;98941.78;4472558;32;20111;-85
2022/05/05 03:36:11;;;;;;;13.95;7.37;;;;;;;18.38;53.72;98936.75;4486614;32;20426;-84
2022/05/05 03:38:36;;;;;;;13.30;7.25;;;;;;;18.35;53.63;98936.16;4486588;32;20143;-84
2022/05/05 03:41:02;;;;;;;14.50;7.28;;;;;;;18.37;53.68;98935.09;4486790;32;20084;-84
2022/05/05 03:43:28;;;;;;;15.77;7.65;;;;;;;18.36;53.35;98927.22;4486748;32;20152;-85
2022/05/05 03:45:53;;;;;;;15.27;8.40;;;;;;;18.37;53.18;98921.75;4486743;32;20080;-85
2022/05/05 03:48:19;;;;;;;14.43;7.87;;;;;;;18.37;53.00;98918.22;4459287;32;20524;-84
2022/05/05 03:50:44;;;;;;;15.05;7.87;;;;;;;18.43;52.96;98920.38;4486644;32;20156;-85
2022/05/05 03:53:10;;;;;;;14.30;7.60;;;;;;;18.43;52.84;98926.56;4486555;32;20111;-86
2022/05/05 03:55:35;;;;;;;13.90;7.30;;;;;;;18.42;52.37;98921.34;4472253;32;20406;-86
2022/05/05 03:58:00;;;;;;;13.20;7.30;;;;;;;18.43;52.16;98923.88;4486464;32;20096;-86
2022/05/05 04:00:26;;;;;;;12.45;6.80;;;;;;;18.50;52.12;98918.87;4472288;32;20150;-85
2022/05/05 04:05:36;;;;;;;12.82;6.07;;;;;;;18.45;52.44;98924.59;4486601;32;20194;-85
2022/05/05 04:08:03;;;;;;;11.40;6.35;;;;;;;18.45;51.51;98927.28;4472242;32;20132;-85
2022/05/05 04:10:29;;;;;;;13.00;6.32;;;;;;;18.44;51.60;98930.91;4486567;32;20148;-84
2022/05/05 04:12:55;;;;;;;11.30;6.80;;;;;;;18.50;51.56;98936.69;4486692;32;20380;-85
2022/05/05 04:15:20;;;;;;;12.43;6.30;;;;;;;18.52;51.52;98929.41;4472438;32;20085;-84
2022/05/05 04:17:46;;;;;;;12.02;6.18;;;;;;;18.59;51.45;98933.25;4472142;32;20127;-84
2022/05/05 04:20:12;;;;;;;11.68;6.32;;;;;;;18.65;51.45;98938.91;4486444;32;20114;-85
2022/05/05 04:22:37;;;;;;;13.98;6.05;;;;;;;18.72;51.82;98941.91;4486363;32;20147;-84
2022/05/05 04:25:03;;;;;;;13.75;7.25;;;;;;;18.76;51.98;98945.16;4472006;32;20416;-80
2022/05/05 04:27:28;;;;;;;15.80;8.63;;;;;;;18.77;52.11;98941.50;4486907;32;20080;-80
2022/05/05 04:29:54;;;;;;;19.40;11.43;;;;;;;18.76;52.17;98953.16;4488157;32;20371;-81
2022/05/05 04:32:19;;;;;;;18.70;10.48;;;;;;;18.79;51.87;98952.88;4488086;32;20159;-82
2022/05/05 04:34:45;;;;;;;19.30;10.35;;;;;;;18.81;51.28;98956.28;4488079;32;20435;-81
2022/05/05 04:37:10;;;;;;;18.25;10.35;;;;;;;18.86;51.03;98959.41;4488025;32;20092;-81
2022/05/05 04:39:35;;;;;;;15.30;7.95;;;;;;;18.90;50.87;98960.00;4487860;32;20119;-83
2022/05/05 04:42:01;;;;;;;14.73;8.20;;;;;;;18.97;50.46;98962.00;4488106;32;20088;-83
2022/05/05 04:44:26;;;;;;;15.93;8.07;;;;;;;19.03;50.74;98963.31;4488066;32;20111;-84
2022/05/05 04:46:51;;;;;;;15.77;6.82;;;;;;;19.01;50.69;98968.78;4488083;32;20115;-84
2022/05/05 04:49:17;;;;;;;14.05;8.13;;;;;;;19.09;51.26;98972.63;4473737;32;20448;-80
2022/05/05 04:51:42;;;;;;;13.27;6.85;;;;;;;19.11;52.15;98970.66;4488035;32;20106;-82
2022/05/05 04:54:08;;;;;;;13.32;6.53;;;;;;;19.14;51.71;98967.69;4488032;31;20115;-81
2022/05/05 04:56:33;;;;;;;13.15;6.30;;;;;;;19.18;51.83;98969.12;4502701;31;20507;-83
2022/05/05 04:58:58;;;;;;;13.32;6.78;;;;;;;19.20;52.12;98975.16;4487448;31;20553;-81
2022/05/05 05:01:24;;;;;;;12.90;6.62;;;;;;;19.20;52.16;98967.16;4503553;31;20080;-82
2022/05/05 05:03:50;;;;;;;12.80;6.20;;;;;;;19.24;52.06;98974.78;4503583;31;20080;-80
2022/05/05 05:06:15;;;;;;;11.80;5.80;;;;;;;19.23;52.26;98964.22;4503622;31;20092;-81
2022/05/05 05:08:42;;;;;;;11.57;5.78;;;;;;;19.29;52.33;98971.69;4489137;31;20087;-81
2022/05/05 05:11:08;;;;;;;12.65;6.43;;;;;;;19.34;52.83;98963.31;4503300;31;20084;-82
2022/05/05 05:13:33;;;;;;;15.25;7.20;;;;;;;19.33;53.27;98962.44;4503496;31;20098;-82
2022/05/05 05:15:59;;;;;;;16.08;7.18;;;;;;;19.31;53.46;98960.88;4489189;31;20381;-82
2022/05/05 05:18:24;;;;;;;15.13;7.60;;;;;;;19.34;53.22;98969.47;4503407;31;20101;-81
2022/05/05 05:20:50;;;;;;;13.05;7.50;;;;;;;19.33;53.24;98964.25;4488863;31;20084;-81
2022/05/05 05:23:16;;;;;;;13.57;7.53;;;;;;;19.34;52.79;98963.31;4503129;31;20080;-82
2022/05/05 05:25:41;;;;;;;15.02;8.18;;;;;;;19.35;51.99;98957.78;4503355;31;20186;-81
2022/05/05 05:28:06;;;;;;;13.52;7.57;;;;;;;19.43;51.23;98965.13;4503406;31;20145;-81
2022/05/05 05:30:33;;;;;;;13.88;7.78;;;;;;;19.48;50.69;98968.25;4502000;31;20124;-81
2022/05/05 05:32:58;;;;;;;13.57;7.95;;;;;;;19.64;49.79;98970.41;4503259;31;20080;-81
2022/05/05 05:35:24;;;;;;;13.15;7.07;;;;;;;19.69;49.86;98981.53;4489035;31;20092;-81
2022/05/05 05:37:51;;;;;;;16.62;7.97;;;;;;;19.58;51.52;98985.16;4503161;31;20183;-81
2022/05/05 05:40:16;;;;;;;13.55;6.75;;;;;;;19.41;52.59;98983.12;4502615;31;20200;-80
2022/05/05 05:42:42;;;;;;;12.90;6.72;;;;;;;19.58;52.59;98987.00;4500663;31;20417;-78
2022/05/05 05:45:08;;;;;;;14.05;7.57;;;;;;;19.72;52.64;98983.97;4503248;31;20343;-81
2022/05/05 05:47:33;;;;;;;16.25;7.68;;;;;;;19.84;52.63;98982.88;4495726;31;20178;-77
2022/05/05 05:49:59;;;;;;;14.93;7.57;;;;;;;19.97;51.92;98987.09;4483972;31;20132;-81
2022/05/05 05:52:24;;;;;;;15.00;8.15;;;;;;;20.07;51.71;98989.78;4483201;32;20081;-82
2022/05/05 05:54:49;;;;;;;16.33;8.68;;;;;;;20.21;51.63;98982.19;4487471;31;20236;-83
2022/05/05 05:57:15;;;;;;;15.13;8.65;;;;;;;20.25;50.02;98987.28;4487441;31;20073;-84
2022/05/05 05:59:40;;;;;;;15.13;9.07;;;;;;;20.30;49.74;98990.34;4494293;31;20133;-84
2022/05/05 06:04:50;;;;;;;14.10;7.00;;;;;;;20.40;47.99;98992.06;4491715;31;20129;-85
2022/05/05 06:07:17;;;;;;;13.18;6.90;;;;;;;20.53;46.38;98993.59;4492513;31;20107;-85
2022/05/05 06:09:42;;;;;;;14.15;7.93;;;;;;;20.59;47.03;98988.56;4484262;32;20184;-85
2022/05/05 06:12:09;;;;;;;14.18;8.00;;;;;;;20.67;47.02;98995.87;4490016;31;20077;-84
2022/05/05 06:14:34;;;;;;;14.68;8.38;;;;;;;20.72;47.19;98998.94;4497961;31;20224;-87
2022/05/05 06:17:00;;;;;;;16.83;8.98;;;;;;;20.77;47.56;98995.87;4501483;31;20107;-84
2022/05/05 06:19:25;;;;;;;17.10;9.02;;;;;;;20.76;48.00;98995.00;4497481;31;20141;-82
2022/05/05 06:21:51;;;;;;;14.25;7.62;;;;;;;20.88;47.96;99001.06;4493201;31;20437;-87
2022/05/05 06:24:16;;;;;;;15.07;8.82;;;;;;;20.87;48.34;99002.03;4504922;31;20092;-85
2022/05/05 06:26:42;;;;;;;14.55;8.27;;;;;;;20.89;48.53;98999.22;4519427;31;20198;-90
2022/05/05 06:29:07;;;;;;;14.82;7.15;;;;;;;20.98;49.00;99003.72;4493778;31;20147;-84
2022/05/05 06:31:33;;;;;;;11.18;6.40;;;;;;;21.12;47.65;98999.72;4500627;31;20079;-86
2022/05/05 06:33:58;;;;;;;13.23;7.00;;;;;;;21.22;46.89;99005.88;4481356;31;20492;-87
2022/05/05 06:36:24;;;;;;;13.18;6.15;;;;;;;21.11;46.22;99008.72;4495203;31;20088;-84
2022/05/05 06:38:53;;;;;;;14.07;6.85;;;;;;;21.36;46.27;99018.81;4475060;32;20180;-83
2022/05/05 06:41:19;;;;;;;14.77;6.55;;;;;;;21.38;45.76;99007.94;4470702;32;20520;-84
2022/05/05 06:43:44;;;;;;;14.25;7.12;;;;;;;21.49;45.91;99012.31;4484869;31;20156;-82
2022/05/05 06:46:10;;;;;;;13.52;7.05;;;;;;;21.54;46.34;99007.34;4484718;31;20099;-84
2022/05/05 06:48:35;;;;;;;13.60;6.85;;;;;;;21.43;46.90;99013.69;4490648;31;20404;-83
2022/05/05 06:51:01;;;;;;;14.07;6.70;;;;;;;21.76;46.40;99006.94;4486263;31;20076;-84
2022/05/05 06:53:26;;;;;;;12.23;6.45;;;;;;;22.00;45.57;99010.91;4500887;31;20132;-83
2022/05/05 06:55:55;;;;;;;13.52;7.07;;;;;;;22.18;45.53;99013.59;4500752;31;20466;-84
2022/05/05 06:58:22;;;;;;;11.82;6.72;;;;;;;22.47;44.36;99018.75;4502165;31;20104;-85
2022/05/05 07:03:31;;;;;;;13.07;6.50;;;;;;;22.86;42.39;99020.25;4502893;31;20119;-82
2022/05/05 07:05:57;;;;;;;13.02;7.03;;;;;;;23.02;41.50;99024.87;4502418;31;20092;-83
2022/05/05 07:08:22;;;;;;;12.43;6.57;;;;;;;23.22;41.83;99025.53;4502322;31;20148;-83
2022/05/05 07:10:53;;;;;;;13.15;6.80;;;;;;;23.38;41.15;99025.66;4502079;31;20159;-82
2022/05/05 07:13:23;;;;;;;12.15;6.53;;;;;;;23.65;40.75;99027.28;4502787;31;20068;-83
2022/05/05 07:15:48;;;;;;;11.68;6.72;;;;;;;23.88;40.37;99022.19;4487953;31;20092;-82
2022/05/05 07:18:14;;;;;;;11.80;6.43;;;;;;;24.01;40.11;99019.06;4502229;31;20140;-84
2022/05/05 07:20:39;;;;;;;12.55;6.28;;;;;;;23.90;38.81;99028.25;4502266;31;20116;-82
2022/05/05 07:23:07;;;;;;;12.20;5.47;;;;;;;23.74;39.11;99030.88;4499500;31;20097;-85
2022/05/05 07:25:32;;;;;;;11.43;6.00;;;;;;;23.44;39.33;99035.75;4502553;31;20092;-82
2022/05/05 07:27:57;;;;;;;11.73;6.20;;;;;;;23.51;40.51;99033.28;4502303;31;20141;-83
2022/05/05 07:30:23;;;;;;;14.25;6.93;;;;;;;23.39;40.60;99034.56;4501866;31;20128;-82
2022/05/05 07:32:49;;;;;;;13.62;6.35;;;;;;;23.26;40.37;99030.47;4502023;31;20341;-83
2022/05/05 07:35:14;;;;;;;12.15;6.35;;;;;;;23.20;40.97;99032.91;4502452;31;20084;-83
2022/05/05 07:37:40;;;;;;;12.68;6.25;;;;;;;23.13;40.81;99027.34;4501778;31;20084;-83
2022/05/05 07:40:07;;;;;;;11.90;5.75;;;;;;;23.22;40.55;99034.47;4501804;31;20076;-84
2022/05/05 07:42:32;;;;;;;14.93;7.20;;;;;;;23.28;40.88;99031.13;4487552;31;20107;-83
2022/05/05 07:44:58;;;;;;;15.70;6.28;;;;;;;23.29;40.94;99026.59;4502312;31;20466;-83
2022/05/05 07:47:24;;;;;;;12.07;5.85;;;;;;;23.41;40.11;99024.47;4500428;31;20092;-87
2022/05/05 07:49:49;;;;;;;12.23;6.43;;;;;;;23.46;39.78;99030.22;4487396;31;20106;-83
2022/05/05 07:52:15;;;;;;;14.25;6.37;;;;;;;23.49;40.17;99029.91;4501327;31;20092;-84
2022/05/05 07:54:44;;;;;;;11.63;5.85;;;;;;;23.50;40.32;99029.72;4500501;31;20084;-86
2022/05/05 07:57:12;;;;;;;11.90;5.75;;;;;;;23.43;39.36;99030.53;4501954;31;20106;-86
2022/05/05 07:59:38;;;;;;;10.27;5.00;;;;;;;23.39;40.02;99031.88;4486571;31;20087;-84
2022/05/05 08:02:04;;;;;;;11.95;5.80;;;;;;;23.52;39.87;99032.28;4500822;31;20152;-87
2022/05/05 08:04:31;;;;;;;11.77;5.40;;;;;;;23.45;40.21;99034.78;4501593;31;20151;-85
2022/05/05 08:06:56;;;;;;;10.77;4.90;;;;;;;23.43;39.47;99038.59;4487679;31;20080;-83
2022/05/05 08:09:21;;;;;;;12.02;4.97;;;;;;;23.55;39.73;99042.72;4486399;31;20130;-84
2022/05/05 08:11:47;;;;;;;11.30;4.72;;;;;;;23.62;39.95;99043.72;4485349;31;20380;-82
2022/05/05 08:14:12;;;;;;;10.63;4.53;;;;;;;23.50;39.79;99048.56;4485676;31;20126;-82
2022/05/05 08:16:38;;;;;;;11.43;4.55;;;;;;;23.53;37.86;99044.72;4485957;31;20098;-82
2022/05/05 08:19:04;;;;;;;11.10;4.60;;;;;;;23.46;37.96;99049.06;4471677;32;20084;-82
2022/05/05 08:21:29;;;;;;;9.50;4.50;;;;;;;23.35;38.13;99058.22;4485670;32;20417;-83
2022/05/05 08:29:23;;;;;;;11.05;4.40;;;;;;;23.39;39.06;99056.06;4491453;31;20164;-84
2022/05/05 08:31:48;;;;;;;11.80;4.50;;;;;;;23.31;38.92;99055.03;4500058;31;20377;-83
2022/05/05 08:34:14;;;;;;;10.50;4.65;;;;;;;23.28;39.00;99062.56;4499888;31;20459;-83
2022/05/05 08:36:39;;;;;;;9.73;4.30;;;;;;;23.29;38.64;99053.47;4485377;31;20141;-83
2022/05/05 08:39:04;;;;;;;9.50;4.47;;;;;;;23.22;39.42;99058.66;4499365;31;20089;-83
2022/05/05 08:41:33;;;;;;;9.00;4.32;;;;;;;23.23;38.79;99054.97;4499917;31;20093;-83
2022/05/05 08:44:00;;;;;;;10.57;4.40;;;;;;;23.33;38.66;99057.53;4499749;31;20535;-82
2022/05/05 08:46:27;;;;;;;15.73;4.87;;;;;;;23.27;38.21;99061.69;4485376;31;20108;-83
2022/05/05 08:48:54;;;;;;;;;;;;;;;23.34;38.14;99060.06;4499835;31;20186;-81
2022/05/05 08:51:20;;;;;;;10.90;4.20;;;;;;;23.40;38.07;99050.53;4485596;31;20263;-81
2022/05/05 08:53:49;;;;;;;10.38;4.30;;;;;;;23.41;38.13;99051.38;4485440;31;20100;-83
2022/05/05 08:56:14;;;;;;;9.07;4.07;;;;;;;23.46;37.87;99059.81;4499731;31;20136;-82
2022/05/05 08:58:40;;;;;;;9.60;3.95;;;;;;;23.57;37.90;99051.47;4499071;31;20087;-83
2022/05/05 09:01:05;;;;;;;12.07;4.18;;;;;;;23.75;37.72;99057.59;4499317;31;20409;-82
2022/05/05 09:03:30;;;;;;;9.90;4.57;;;;;;;23.92;37.57;99057.69;4485048;31;20131;-83
2022/05/05 09:05:56;;;;;;;10.60;5.10;;;;;;;23.97;36.96;99058.06;4499479;31;20344;-84
2022/05/05 09:08:34;;;;;;;10.27;4.57;;;;;;;23.84;37.55;99063.06;4499128;31;20076;-82
2022/05/05 09:11:05;;;;;;;11.90;4.85;;;;;;;23.95;37.40;99068.12;4484825;31;20899;-83
2022/05/05 09:13:36;;;;;;;9.70;4.53;;;;;;;23.88;36.74;99067.94;4500734;31;20095;-83
2022/05/05 09:16:03;;;;;;;9.68;4.35;;;;;;;23.93;37.13;99078.19;4503703;31;20120;-85
2022/05/05 09:18:30;;;;;;;;;;;;;;;24.01;37.06;99075.56;4503367;31;20113;-84
2022/05/05 09:20:58;;;;;;;12.57;4.97;;;;;;;24.14;36.94;99067.88;4488846;31;19991;-83
2022/05/05 09:23:36;;;;;;;12.07;4.90;;;;;;;24.12;37.19;99071.72;4502978;31;20164;-81
2022/05/05 09:26:08;;;;;;;11.40;5.20;;;;;;;24.12;36.58;99072.53;4503302;31;20108;-80
2022/05/05 09:28:35;;;;;;;10.43;4.25;;;;;;;24.04;36.53;99072.53;4503411;31;20140;-81
2022/05/05 09:31:09;;;;;;;10.73;4.60;;;;;;;23.90;37.15;99084.75;4503058;31;20459;-81
2022/05/05 09:33:34;;;;;;;10.82;4.32;;;;;;;23.89;36.83;99077.72;4488555;31;20112;-81
2022/05/05 09:36:03;;;;;;;9.60;4.60;;;;;;;23.86;37.11;99080.72;4502769;31;20092;-82
2022/05/05 09:38:56;;;;;;;11.07;4.47;;;;;;;23.89;36.76;99080.41;4503191;31;20080;-85
2022/05/05 09:41:29;;;;;;;10.80;4.47;;;;;;;24.00;37.21;99075.72;4503563;31;20218;-86
2022/05/05 09:43:55;;;;;;;11.80;4.62;;;;;;;23.61;37.41;99077.03;4502869;31;20152;-85
2022/05/05 09:46:27;;;;;;;9.50;4.35;;;;;;;23.79;36.82;99076.13;4502982;31;20104;-84
2022/05/05 09:48:53;;;;;;;9.93;4.40;;;;;;;23.81;36.19;99074.97;4502537;31;20065;-86
2022/05/05 09:51:19;;;;;;;11.68;4.80;;;;;;;23.90;35.83;99079.37;4503039;31;20444;-83
2022/05/05 09:59:29;;;;;;;13.35;4.72;;;;;;;23.98;36.47;99080.41;4490771;31;20114;-83
2022/05/05 10:02:04;;;;;;;9.32;4.62;;;;;;;23.94;36.36;99069.13;4490053;31;20578;-84
2022/05/05 10:04:32;;;;;;;12.55;4.65;;;;;;;23.77;36.83;99068.19;4492219;31;20097;-86
2022/05/05 10:06:58;;;;;;;11.77;4.57;;;;;;;23.75;36.37;99064.81;4497660;31;20088;-84
2022/05/05 10:09:24;;;;;;;12.00;4.30;;;;;;;23.82;36.42;99065.06;4497676;31;20096;-84
2022/05/05 10:11:50;;;;;;;10.00;4.20;;;;;;;23.74;37.34;99068.53;4486349;31;20099;-84
2022/05/05 10:14:18;;;;;;;8.73;3.80;;;;;;;23.62;37.17;99070.63;4501171;31;20466;-84
2022/05/05 10:16:43;;;;;;;8.13;3.22;;;;;;;23.82;36.56;99067.75;4501683;31;20386;-85
2022/05/05 10:19:09;;;;;;;7.10;3.20;;;;;;;23.84;34.84;99061.19;4501991;31;20117;-86
2022/05/05 10:21:44;;;;;;;9.50;3.20;;;;;;;23.83;35.06;99062.19;4502792;31;20171;-85
2022/05/05 10:24:17;;;;;;;10.75;3.40;;;;;;;23.80;34.43;99065.22;4502801;31;20088;-84
2022/05/05 10:26:49;;;;;;;8.18;3.30;;;;;;;23.85;33.97;99064.72;4488086;31;20167;-85
2022/05/05 10:29:44;;;;;;;7.55;2.80;;;;;;;23.74;34.43;99058.59;4488489;31;20076;-85
2022/05/05 10:32:10;;;;;;;9.32;3.47;;;;;;;23.78;34.93;99064.53;4486225;31;20138;-84
2022/05/05 10:34:40;;;;;;;7.95;3.00;;;;;;;23.82;34.98;99062.38;4502555;31;20071;-85
2022/05/05 10:37:10;;;;;;;8.10;3.30;;;;;;;23.81;34.01;99058.81;4502627;31;20760;-84
2022/05/05 10:39:43;;;;;;;8.93;2.78;;;;;;;23.72;33.44;99049.84;4488399;31;20083;-85
2022/05/05 10:42:20;;;;;;;11.12;3.75;;;;;;;23.75;34.37;99057.59;4502391;31;20761;-86
2022/05/05 10:45:12;;;;;;;8.02;3.40;;;;;;;23.67;34.10;99056.72;4503118;31;20155;-86
2022/05/05 10:47:46;;;;;;;9.80;3.10;;;;;;;23.72;34.43;99065.13;4489212;31;20084;-84
2022/05/05 10:50:29;;;;;;;8.57;3.10;;;;;;;23.74;34.71;99058.59;4502439;31;20080;-86
2022/05/05 10:52:55;;;;;;;8.85;3.50;;;;;;;23.79;34.25;99051.94;4488314;31;20112;-85
2022/05/05 10:55:24;;;;;;;8.57;3.20;;;;;;;23.83;34.25;99058.66;4488300;31;20152;-83
2022/05/05 10:57:49;;;;;;;8.63;3.10;;;;;;;23.78;34.06;99055.56;4488114;31;20111;-82
2022/05/05 11:00:19;;;;;;;9.18;2.90;;;;;;;23.91;34.50;99047.91;4488862;31;20080;-82
2022/05/05 11:03:03;;;;;;;8.80;3.67;;;;;;;24.10;34.46;99049.50;4502587;31;20091;-82
2022/05/05 11:05:38;;;;;;;8.15;3.30;;;;;;;24.14;34.06;99057.09;4502465;31;20452;-82
2022/05/05 11:08:10;;;;;;;9.43;3.50;;;;;;;24.10;33.95;99038.72;4502323;31;20092;-82
2022/05/05 11:10:38;;;;;;;7.20;3.00;;;;;;;24.13;33.74;99041.09;4502392;31;20092;-82
2022/05/05 11:13:04;;;;;;;8.35;3.45;;;;;;;24.20;33.55;99034.03;4502895;31;20092;-82
2022/05/05 11:21:33;;;;;;;8.65;3.20;;;;;;;24.33;33.96;99033.56;4502323;31;20185;-82
2022/05/05 11:24:00;;;;;;;9.05;3.47;;;;;;;24.39;34.19;99046.34;4502260;31;20470;-82
2022/05/05 11:26:26;;;;;;;7.97;3.00;;;;;;;24.29;33.77;99033.06;4502294;31;20092;-82
2022/05/05 11:28:53;;;;;;;8.18;2.95;;;;;;;24.39;33.67;99038.28;4502547;31;20372;-82
2022/05/05 11:31:28;;;;;;;7.55;3.00;;;;;;;24.48;32.33;99034.59;4502075;31;20106;-81
2022/05/05 11:34:03;;;;;;;7.72;3.08;;;;;;;24.53;31.89;99040.37;4502159;31;20164;-82
2022/05/05 11:36:29;;;;;;;7.07;3.05;;;;;;;24.59;31.51;99024.53;4501010;31;20110;-81
2022/05/05 11:38:55;;;;;;;8.88;3.45;;;;;;;24.62;32.44;99032.28;4501725;31;20084;-81
2022/05/05 11:41:21;;;;;;;8.07;3.35;;;;;;;24.53;32.74;99029.59;4488099;31;20085;-81
2022/05/05 11:46:32;;;;;;;8.23;3.50;;;;;;;24.76;32.50;99019.97;4489917;31;20118;-81
2022/05/05 11:48:58;;;;;;;8.38;3.12;;;;;;;24.61;33.09;99019.81;4501859;31;20154;-81
2022/05/05 11:51:30;;;;;;;8.88;3.22;;;;;;;24.62;33.07;99006.19;4501842;31;20072;-81
2022/05/05 11:54:00;;;;;;;8.18;3.03;;;;;;;24.59;33.29;99016.44;4502488;31;20584;-82
2022/05/05 11:56:29;;;;;;;8.60;3.70;;;;;;;24.59;33.58;99009.22;4487769;31;20100;-81
2022/05/05 12:01:42;;;;;;;8.93;3.50;;;;;;;24.63;33.94;99007.03;4489600;31;20110;-82
2022/05/05 12:04:09;;;;;;;8.77;3.25;;;;;;;24.76;33.14;98998.44;4487761;31;20149;-82
2022/05/05 12:06:36;;;;;;;11.23;3.72;;;;;;;24.78;32.58;99001.78;4502262;31;20111;-86